createdAt,value
2019-05-19T00:00:17.522Z,13.83
2019-05-19T00:02:46.778Z,13.03
2019-05-19T00:05:16.088Z,12.63
2019-05-19T00:07:45.379Z,12.53
2019-05-19T00:10:14.680Z,13.43
2019-05-19T00:12:43.910Z,12.60
2019-05-19T00:15:13.274Z,12.27
2019-05-19T00:17:42.629Z,13.10
2019-05-19T00:20:11.949Z,12.73
2019-05-19T00:22:41.730Z,13.20
2019-05-19T00:25:11.063Z,13.50
2019-05-19T00:27:40.364Z,12.87
2019-05-19T00:30:10.017Z,13.43
2019-05-19T00:32:39.242Z,12.83
2019-05-19T00:35:08.817Z,12.43
2019-05-19T00:37:38.131Z,13.20
2019-05-19T00:40:07.440Z,12.67
2019-05-19T00:42:36.766Z,14.37
2019-05-19T00:45:07.023Z,13.33
2019-05-19T00:47:36.254Z,13.90
2019-05-19T00:50:06.127Z,13.43
2019-05-19T00:52:35.546Z,12.90
2019-05-19T00:55:04.808Z,14.10
2019-05-19T00:57:34.612Z,13.90
2019-05-19T01:00:04.558Z,13.43
2019-05-19T01:02:33.798Z,13.33
2019-05-19T01:05:03.298Z,15.00
2019-05-19T01:07:32.530Z,13.23
2019-05-19T01:10:01.697Z,13.13
2019-05-19T01:12:31.036Z,13.20
2019-05-19T01:15:00.269Z,12.43
2019-05-19T01:17:29.501Z,13.50
2019-05-19T01:19:58.852Z,14.10
2019-05-19T01:22:28.500Z,13.57
2019-05-19T01:24:57.729Z,12.73
2019-05-19T01:27:26.980Z,12.77
2019-05-19T01:29:56.236Z,13.07
2019-05-19T01:32:25.579Z,13.03
2019-05-19T01:34:54.818Z,13.60
2019-05-19T01:37:24.178Z,13.30
2019-05-19T01:39:53.490Z,13.70
2019-05-19T01:42:22.739Z,13.50
2019-05-19T01:44:52.013Z,14.20
2019-05-19T01:47:21.190Z,13.10
2019-05-19T01:49:50.426Z,13.30
2019-05-19T01:52:19.674Z,13.70
2019-05-19T01:54:48.935Z,14.10
2019-05-19T01:57:18.174Z,14.63
2019-05-19T01:59:47.529Z,13.87
2019-05-19T02:02:17.166Z,14.23
2019-05-19T02:04:46.474Z,13.67
2019-05-19T02:07:15.761Z,13.77
2019-05-19T02:09:45.012Z,14.17
2019-05-19T02:12:14.319Z,13.37
2019-05-19T02:14:43.553Z,12.43
2019-05-19T02:17:12.865Z,13.80
2019-05-19T02:19:42.111Z,12.33
2019-05-19T02:22:11.351Z,13.77
2019-05-19T02:24:41.043Z,13.63
2019-05-19T02:27:10.273Z,13.57
2019-05-19T02:29:39.603Z,14.47
2019-05-19T02:32:08.859Z,13.40
2019-05-19T02:34:38.196Z,14.07
2019-05-19T02:37:07.527Z,12.60
2019-05-19T02:39:36.767Z,14.17
2019-05-19T02:42:06.005Z,13.27
2019-05-19T02:44:38.246Z,13.20
2019-05-19T02:47:08.870Z,13.60
2019-05-19T02:49:39.211Z,14.23
2019-05-19T02:52:10.469Z,14.10
2019-05-19T02:54:40.580Z,14.73
2019-05-19T02:57:10.138Z,15.10
2019-05-19T02:59:40.818Z,15.40
2019-05-19T03:02:13.060Z,14.67
2019-05-19T03:04:42.329Z,14.57
2019-05-19T03:07:11.569Z,13.90
2019-05-19T03:09:40.830Z,15.33
2019-05-19T03:12:10.115Z,17.20
2019-05-19T03:14:39.361Z,16.00
2019-05-19T03:17:08.669Z,17.60
2019-05-19T03:19:37.958Z,18.53
2019-05-19T03:22:07.253Z,18.37
2019-05-19T03:24:36.482Z,17.80
2019-05-19T03:27:06.124Z,19.27
2019-05-19T03:29:39.687Z,20.50
2019-05-19T03:32:25.446Z,19.43
2019-05-19T03:34:54.718Z,19.70
2019-05-19T03:37:23.968Z,21.33
2019-05-19T03:39:53.220Z,19.60
2019-05-19T03:42:22.470Z,19.20
2019-05-19T03:44:51.792Z,19.37
2019-05-19T03:47:21.014Z,18.40
2019-05-19T03:49:50.284Z,19.50
2019-05-19T03:52:19.515Z,19.10
2019-05-19T03:54:48.827Z,19.53
2019-05-19T03:57:18.108Z,19.73
2019-05-19T03:59:47.351Z,22.40
2019-05-19T04:02:16.584Z,19.63
2019-05-19T04:04:45.817Z,20.03
2019-05-19T04:07:15.074Z,21.47
2019-05-19T04:09:44.368Z,21.27
2019-05-19T04:12:13.627Z,21.83
2019-05-19T04:14:42.877Z,20.50
2019-05-19T04:17:12.167Z,21.60
2019-05-19T04:19:41.412Z,19.23
2019-05-19T04:22:10.657Z,20.30
2019-05-19T04:24:44.356Z,19.57
2019-05-19T04:27:14.167Z,21.30
2019-05-19T04:29:43.471Z,20.17
2019-05-19T04:32:12.789Z,20.23
2019-05-19T04:34:42.022Z,20.37
2019-05-19T04:37:11.267Z,18.87
2019-05-19T04:39:40.532Z,19.70
2019-05-19T04:42:09.835Z,20.63
2019-05-19T04:44:39.070Z,20.23
2019-05-19T04:47:08.319Z,19.67
2019-05-19T04:49:37.555Z,19.23
2019-05-19T04:52:07.558Z,18.67
2019-05-19T04:54:37.403Z,19.20
2019-05-19T04:57:06.716Z,18.27
2019-05-19T04:59:35.955Z,18.93
2019-05-19T05:02:05.190Z,18.93
2019-05-19T05:04:34.476Z,18.57
2019-05-19T05:07:03.746Z,17.23
2019-05-19T05:09:32.998Z,18.23
2019-05-19T05:12:02.298Z,18.23
2019-05-19T05:14:31.624Z,18.83
2019-05-19T05:17:00.895Z,18.07
2019-05-19T05:19:30.116Z,17.97
2019-05-19T05:21:59.997Z,17.53
2019-05-19T05:24:29.163Z,17.57
2019-05-19T05:26:58.427Z,17.53
2019-05-19T05:29:27.675Z,17.80
2019-05-19T05:31:56.910Z,18.37
2019-05-19T05:34:26.244Z,18.53
2019-05-19T05:36:55.522Z,17.83
2019-05-19T05:39:24.819Z,18.70
2019-05-19T05:41:54.062Z,16.27
2019-05-19T05:44:23.306Z,15.80
2019-05-19T05:46:52.494Z,15.00
2019-05-19T05:49:21.737Z,15.63
2019-05-19T05:51:51.045Z,17.33
2019-05-19T05:54:20.765Z,14.50
2019-05-19T05:56:50.000Z,14.27
2019-05-19T05:59:19.370Z,15.43
2019-05-19T06:01:48.749Z,13.90
2019-05-19T06:04:18.126Z,14.70
2019-05-19T06:06:47.452Z,14.33
2019-05-19T06:09:16.739Z,14.63
2019-05-19T06:11:46.073Z,12.97
2019-05-19T06:14:15.636Z,13.77
2019-05-19T06:16:44.912Z,14.73
2019-05-19T06:19:14.195Z,14.17
2019-05-19T06:21:43.548Z,13.67
2019-05-19T06:24:12.813Z,14.27
2019-05-19T06:26:42.134Z,14.00
2019-05-19T06:29:11.377Z,13.57
2019-05-19T06:31:40.665Z,13.20
2019-05-19T06:34:09.927Z,12.23
2019-05-19T06:36:39.155Z,11.53
2019-05-19T06:39:09.066Z,11.97
2019-05-19T06:41:38.301Z,10.73
2019-05-19T06:44:07.711Z,11.40
2019-05-19T06:46:37.074Z,11.23
2019-05-19T06:49:06.386Z,11.03
2019-05-19T06:51:35.637Z,11.40
2019-05-19T06:54:04.893Z,10.83
2019-05-19T06:56:34.498Z,10.63
2019-05-19T06:59:03.854Z,11.67
2019-05-19T07:01:33.216Z,9.70
2019-05-19T07:04:02.572Z,10.17
2019-05-19T07:06:34.195Z,9.47
2019-05-19T07:09:03.450Z,9.90
2019-05-19T07:11:32.783Z,9.63
2019-05-19T07:14:03.218Z,9.90
2019-05-19T07:16:32.606Z,8.70
2019-05-19T07:19:01.909Z,8.87
2019-05-19T07:21:31.289Z,9.00
2019-05-19T07:24:00.547Z,9.60
2019-05-19T07:26:29.911Z,10.00
2019-05-19T07:28:59.183Z,8.90
2019-05-19T07:31:28.482Z,9.27
2019-05-19T07:33:57.795Z,9.33
2019-05-19T07:36:26.988Z,8.60
2019-05-19T07:38:56.255Z,8.03
2019-05-19T07:41:25.512Z,8.10
2019-05-19T07:43:54.809Z,8.30
2019-05-19T07:46:24.070Z,8.08
2019-05-19T07:48:53.481Z,8.70
2019-05-19T07:51:22.690Z,8.63
2019-05-19T07:53:52.114Z,8.73
2019-05-19T07:56:21.797Z,9.60
2019-05-19T07:58:51.712Z,9.73
2019-05-19T08:01:21.070Z,9.23
2019-05-19T08:03:51.085Z,10.85
2019-05-19T08:06:20.325Z,10.77
2019-05-19T08:08:50.514Z,11.43
2019-05-19T08:11:20.089Z,12.43
2019-05-19T08:13:49.428Z,12.97
2019-05-19T08:16:19.054Z,12.87
2019-05-19T08:18:48.315Z,13.05
2019-05-19T08:21:17.567Z,13.63
2019-05-19T08:23:59.828Z,12.70
2019-05-19T08:26:17.768Z,12.80
2019-05-19T08:28:47.087Z,12.63
2019-05-19T08:31:16.336Z,13.23
2019-05-19T08:33:45.588Z,13.87
2019-05-19T08:36:14.918Z,15.03
2019-05-19T08:38:44.206Z,13.73
2019-05-19T08:41:13.538Z,13.55
2019-05-19T08:43:42.787Z,14.23
2019-05-19T08:46:12.128Z,13.03
2019-05-19T08:48:41.407Z,12.93
2019-05-19T08:51:10.678Z,13.03
2019-05-19T08:53:40.620Z,13.03
2019-05-19T08:56:10.835Z,13.13
2019-05-19T08:58:41.312Z,15.00
2019-05-19T09:01:11.812Z,13.47
2019-05-19T09:03:42.891Z,12.40
2019-05-19T09:06:12.224Z,12.83
2019-05-19T09:08:41.528Z,13.60
2019-05-19T09:11:10.880Z,12.53
2019-05-19T09:13:40.564Z,13.03
2019-05-19T09:16:12.832Z,12.23
2019-05-19T09:18:42.447Z,12.63
2019-05-19T09:21:11.993Z,12.10
2019-05-19T09:23:41.233Z,12.65
2019-05-19T09:26:10.530Z,12.80
2019-05-19T09:28:39.786Z,12.23
2019-05-19T09:31:09.050Z,12.82
2019-05-19T09:36:16.697Z,12.80
2019-05-19T09:38:46.587Z,12.03
2019-05-19T09:41:15.910Z,12.07
2019-05-19T09:43:46.430Z,11.67
2019-05-19T09:46:16.398Z,12.75
2019-05-19T09:48:50.033Z,12.58
2019-05-19T09:51:19.574Z,12.50
2019-05-19T09:53:49.234Z,13.08
2019-05-19T09:56:18.953Z,14.43
2019-05-19T09:58:48.575Z,13.60
2019-05-19T10:01:19.571Z,14.00
2019-05-19T10:03:52.665Z,13.40
2019-05-19T10:06:22.354Z,13.40
2019-05-19T10:09:17.702Z,14.30
2019-05-19T10:12:02.781Z,14.23
2019-05-19T10:14:32.193Z,14.07
2019-05-19T10:23:14.884Z,15.03
2019-05-19T10:25:53.750Z,14.58
2019-05-19T10:28:23.092Z,15.30
2019-05-19T10:30:52.673Z,15.45
2019-05-19T10:33:21.906Z,16.07
2019-05-19T10:35:51.141Z,14.25
2019-05-19T10:38:20.334Z,16.37
2019-05-19T10:40:49.560Z,15.78
2019-05-19T10:43:18.849Z,15.30
2019-05-19T10:45:59.695Z,16.45
2019-05-19T10:48:29.165Z,16.37
2019-05-19T10:50:58.468Z,15.38
2019-05-19T10:53:27.725Z,15.13
2019-05-19T10:55:56.971Z,14.63
2019-05-19T10:58:26.475Z,15.10
2019-05-19T11:00:55.717Z,16.25
2019-05-19T11:03:25.051Z,14.63
2019-05-19T11:05:54.366Z,15.40
2019-05-19T11:08:23.744Z,14.20
2019-05-19T11:10:53.097Z,14.73
2019-05-19T11:13:22.401Z,14.25
2019-05-19T11:15:52.366Z,14.80
2019-05-19T11:18:21.714Z,15.68
2019-05-19T11:20:51.047Z,14.80
2019-05-19T11:23:20.355Z,15.08
2019-05-19T11:25:51.699Z,15.68
2019-05-19T11:28:22.038Z,14.87
2019-05-19T11:30:51.335Z,14.78
2019-05-19T11:33:20.578Z,15.60
2019-05-19T11:35:49.974Z,14.93
2019-05-19T11:38:19.311Z,14.73
2019-05-19T11:40:48.581Z,14.68
2019-05-19T11:43:18.409Z,13.85
2019-05-19T11:45:47.659Z,15.05
2019-05-19T11:48:17.155Z,15.03
2019-05-19T11:50:47.056Z,13.95
2019-05-19T11:53:16.402Z,13.40
2019-05-19T11:55:45.719Z,13.20
2019-05-19T11:58:15.187Z,13.32
2019-05-19T12:00:44.445Z,13.32
2019-05-19T12:03:13.782Z,13.70
2019-05-19T12:05:43.091Z,13.10
2019-05-19T12:08:12.347Z,12.82
2019-05-19T12:10:41.670Z,12.40
2019-05-19T12:13:10.944Z,14.38
2019-05-19T12:15:40.187Z,16.60
2019-05-19T12:18:09.450Z,16.60
2019-05-19T12:20:38.792Z,17.07
2019-05-19T12:23:08.696Z,17.42
2019-05-19T12:25:38.037Z,17.23
2019-05-19T12:28:07.505Z,18.42
2019-05-19T12:30:36.690Z,16.32
2019-05-19T12:33:06.157Z,18.48
2019-05-19T12:35:35.600Z,17.23
2019-05-19T12:38:04.906Z,18.50
2019-05-19T12:40:34.224Z,17.90
2019-05-19T12:43:03.469Z,17.37
2019-05-19T12:45:33.366Z,18.00
2019-05-19T12:48:02.769Z,18.92
2019-05-19T12:50:32.089Z,18.07
2019-05-19T12:53:01.348Z,18.10
2019-05-19T12:55:30.701Z,18.07
2019-05-19T12:57:59.982Z,17.35
2019-05-19T13:00:29.376Z,17.37
2019-05-19T13:02:58.699Z,18.12
2019-05-19T13:05:28.299Z,17.37
2019-05-19T13:07:57.624Z,17.00
2019-05-19T13:10:26.936Z,16.90
2019-05-19T13:12:56.222Z,17.40
2019-05-19T13:15:25.639Z,17.37
2019-05-19T13:17:54.961Z,18.37
2019-05-19T13:20:24.512Z,18.57
2019-05-19T13:22:53.786Z,18.25
2019-05-19T13:25:23.090Z,18.32
2019-05-19T13:27:52.341Z,18.20
2019-05-19T13:30:21.696Z,17.87
2019-05-19T13:32:51.011Z,18.23
2019-05-19T13:35:20.835Z,17.70
2019-05-19T13:37:50.064Z,17.65
2019-05-19T13:40:19.426Z,18.20
2019-05-19T13:42:48.834Z,16.70
2019-05-19T13:45:18.355Z,17.85
2019-05-19T13:47:47.642Z,17.05
2019-05-19T13:50:16.965Z,16.65
2019-05-19T13:52:46.214Z,17.42
2019-05-19T13:55:15.663Z,17.17
2019-05-19T13:57:45.295Z,16.45
2019-05-19T14:00:15.351Z,16.50
2019-05-19T14:02:44.637Z,17.60
2019-05-19T14:05:13.974Z,16.07
2019-05-19T14:07:43.264Z,16.95
2019-05-19T14:10:13.898Z,17.75
2019-05-19T14:12:43.227Z,16.52
2019-05-19T14:15:13.205Z,16.05
2019-05-19T14:17:42.495Z,14.85
2019-05-19T14:20:12.196Z,15.50
2019-05-19T14:22:41.406Z,14.30
2019-05-19T14:25:10.984Z,14.25
2019-05-19T14:27:40.205Z,14.90
2019-05-19T14:30:09.847Z,13.78
2019-05-19T14:32:39.113Z,14.30
2019-05-19T14:35:09.141Z,13.00
2019-05-19T14:37:38.515Z,12.78
2019-05-19T14:40:08.109Z,12.03
2019-05-19T14:42:48.413Z,11.65
2019-05-19T14:45:19.231Z,11.95
2019-05-19T14:47:48.552Z,12.10
2019-05-19T14:50:17.955Z,11.78
2019-05-19T14:52:47.314Z,11.90
2019-05-19T14:55:16.566Z,10.95
2019-05-19T14:57:46.133Z,12.30
2019-05-19T15:00:16.293Z,11.78
2019-05-19T15:02:45.534Z,11.90
2019-05-19T15:05:15.114Z,12.28
2019-05-19T15:07:44.387Z,12.63
2019-05-19T15:10:14.282Z,12.95
2019-05-19T15:12:43.625Z,12.55
2019-05-19T15:15:13.576Z,12.15
2019-05-19T15:17:42.872Z,12.73
2019-05-19T15:20:12.449Z,12.05
2019-05-19T15:22:41.740Z,12.68
2019-05-19T15:25:11.083Z,13.32
2019-05-19T15:27:40.406Z,14.28
2019-05-19T15:30:13.702Z,14.15
2019-05-19T15:32:41.363Z,14.98
2019-05-19T15:35:10.828Z,15.95
2019-05-19T15:37:40.183Z,16.12
2019-05-19T15:40:09.671Z,9.55
2019-05-19T15:42:38.948Z,8.18
2019-05-19T15:45:09.669Z,6.27
2019-05-19T15:47:39.002Z,5.67
2019-05-19T15:50:08.569Z,13.72
2019-05-19T15:52:37.925Z,37.70
2019-05-19T15:55:07.710Z,63.40
2019-05-19T15:57:38.001Z,38.70
2019-05-19T16:00:09.120Z,13.53
2019-05-19T16:02:38.446Z,15.20
2019-05-19T16:05:08.117Z,14.80
2019-05-19T16:07:37.313Z,10.87
2019-05-19T16:10:07.489Z,16.37
2019-05-19T16:12:36.736Z,16.33
2019-05-19T16:15:06.778Z,11.27
2019-05-19T16:17:36.157Z,9.77
2019-05-19T16:20:05.817Z,10.17
2019-05-19T16:22:35.105Z,27.43
2019-05-19T16:25:04.927Z,10.97
2019-05-19T16:27:34.144Z,7.30
2019-05-19T16:30:03.515Z,5.90
2019-05-19T16:32:32.765Z,6.03
2019-05-19T16:35:02.014Z,7.13
2019-05-19T16:37:31.547Z,5.90
2019-05-19T16:40:00.843Z,6.30
2019-05-19T16:42:30.795Z,6.80
2019-05-19T16:45:00.133Z,7.10
2019-05-19T16:47:29.464Z,6.73
2019-05-19T16:49:58.707Z,6.97
2019-05-19T16:52:28.033Z,6.63
2019-05-19T16:55:16.634Z,12.37
2019-05-19T16:57:46.054Z,9.77
2019-05-19T17:00:15.983Z,12.27
2019-05-19T17:02:45.340Z,9.05
2019-05-19T17:05:16.183Z,8.07
2019-05-19T17:07:45.503Z,9.17
2019-05-19T17:10:15.060Z,9.63
2019-05-19T17:12:44.549Z,14.67
2019-05-19T17:15:13.993Z,23.77
2019-05-19T17:17:43.347Z,48.83
2019-05-19T17:20:13.321Z,39.00
2019-05-19T17:22:42.736Z,27.37
2019-05-19T17:25:13.195Z,15.07
2019-05-19T17:27:43.198Z,20.45
2019-05-19T17:30:14.352Z,23.35
2019-05-19T17:32:43.714Z,18.80
2019-05-19T17:35:12.970Z,13.07
2019-05-19T17:37:42.665Z,10.70
2019-05-19T17:40:12.504Z,11.15
2019-05-19T17:42:41.892Z,11.07
2019-05-19T17:45:11.674Z,15.95
2019-05-19T17:47:41.057Z,17.40
2019-05-19T17:50:10.707Z,16.50
2019-05-19T17:52:40.099Z,10.30
2019-05-19T17:55:09.550Z,9.87
2019-05-19T17:57:38.955Z,10.87
2019-05-19T18:00:10.300Z,10.50
2019-05-19T18:02:39.860Z,10.43
2019-05-19T18:05:09.665Z,10.25
2019-05-19T18:07:39.077Z,10.23
2019-05-19T18:10:08.959Z,10.10
2019-05-19T18:12:38.298Z,10.13
2019-05-19T18:15:08.821Z,9.70
2019-05-19T18:17:38.324Z,14.53
2019-05-19T18:20:07.773Z,23.60
2019-05-19T18:22:37.031Z,22.47
2019-05-19T18:25:07.075Z,29.50
2019-05-19T18:27:36.263Z,27.70
2019-05-19T18:30:05.624Z,20.90
2019-05-19T18:32:35.012Z,21.80
2019-05-19T18:35:04.523Z,22.10
2019-05-19T18:37:33.858Z,20.90
2019-05-19T18:40:03.352Z,18.90
2019-05-19T18:42:33.325Z,19.30
2019-05-19T18:45:02.622Z,18.50
2019-05-19T18:47:31.977Z,19.00
2019-05-19T18:50:01.244Z,24.83
2019-05-19T18:52:31.679Z,35.13
2019-05-19T18:55:01.011Z,30.73
2019-05-19T18:57:30.378Z,24.17
2019-05-19T18:59:59.648Z,20.53
2019-05-19T19:02:28.952Z,36.53
2019-05-19T19:04:58.288Z,28.40
2019-05-19T19:07:45.551Z,19.43
2019-05-19T19:10:14.924Z,18.83
2019-05-19T19:12:44.272Z,21.27
2019-05-19T19:15:13.511Z,20.90
2019-05-19T19:17:42.874Z,37.00
2019-05-19T19:20:12.218Z,32.17
2019-05-19T19:22:41.502Z,33.60
2019-05-19T19:25:10.765Z,38.73
2019-05-19T19:27:39.953Z,65.10
2019-05-19T19:30:09.921Z,74.70
2019-05-19T19:32:39.710Z,44.83
2019-05-19T19:35:09.408Z,28.07
2019-05-19T19:37:38.730Z,26.45
2019-05-19T19:40:08.514Z,31.70
2019-05-19T19:42:37.831Z,25.60
2019-05-19T19:45:07.793Z,24.93
2019-05-19T19:47:37.063Z,21.73
2019-05-19T19:50:07.154Z,20.07
2019-05-19T19:52:36.406Z,19.97
2019-05-19T19:55:05.747Z,18.30
2019-05-19T19:57:35.300Z,19.27
2019-05-19T20:00:17.218Z,19.23
2019-05-19T20:02:36.039Z,18.13
2019-05-19T20:05:05.305Z,18.00
2019-05-19T20:07:34.672Z,19.07
2019-05-19T20:10:04.006Z,18.87
2019-05-19T20:12:33.280Z,18.70
2019-05-19T20:15:02.591Z,19.17
2019-05-19T20:17:31.839Z,17.50
2019-05-19T20:20:01.099Z,16.17
2019-05-19T20:22:30.432Z,15.73
2019-05-19T20:24:59.701Z,15.93
2019-05-19T20:27:28.981Z,17.47
2019-05-19T20:30:04.849Z,15.67
2019-05-19T20:32:34.158Z,15.10
2019-05-19T20:35:03.454Z,14.23
2019-05-19T20:37:32.824Z,14.57
2019-05-19T20:40:02.225Z,14.60
2019-05-19T20:42:32.028Z,13.30
2019-05-19T20:45:01.449Z,13.07
2019-05-19T20:47:30.720Z,12.40
2019-05-19T20:50:00.064Z,11.77
2019-05-19T20:52:29.298Z,11.20
2019-05-19T20:54:58.667Z,11.50
2019-05-19T20:57:28.022Z,11.30
2019-05-19T20:59:57.329Z,11.63
2019-05-19T21:02:26.598Z,11.83
2019-05-19T21:04:55.915Z,11.63
2019-05-19T21:07:25.282Z,11.70
2019-05-19T21:09:54.616Z,10.50
2019-05-19T21:12:24.057Z,11.53
2019-05-19T21:14:53.314Z,11.53
2019-05-19T21:17:22.559Z,10.93
2019-05-19T21:19:51.796Z,10.90
2019-05-19T21:22:21.141Z,10.33
2019-05-19T21:24:52.329Z,10.90
2019-05-19T21:27:21.619Z,11.67
2019-05-19T21:29:53.534Z,11.03
2019-05-19T21:32:22.851Z,11.60
2019-05-19T21:34:52.098Z,11.37
2019-05-19T21:37:21.562Z,11.80
2019-05-19T21:39:50.981Z,10.77
2019-05-19T21:42:20.160Z,9.97
2019-05-19T21:44:49.429Z,10.10
2019-05-19T21:47:18.631Z,10.30
2019-05-19T21:49:47.843Z,11.67
2019-05-19T21:52:18.529Z,11.73
2019-05-19T21:54:47.763Z,11.50
2019-05-19T21:57:17.002Z,11.17
2019-05-19T21:59:46.355Z,10.10
2019-05-19T22:02:15.789Z,11.07
2019-05-19T22:04:45.035Z,10.00
2019-05-19T22:07:19.985Z,10.30
2019-05-19T22:09:49.197Z,11.00
2019-05-19T22:12:18.467Z,10.27
2019-05-19T22:14:47.727Z,10.80
2019-05-19T22:17:17.090Z,9.53
2019-05-19T22:19:46.313Z,9.87
2019-05-19T22:22:15.567Z,10.03
2019-05-19T22:24:44.818Z,11.43
2019-05-19T22:27:14.078Z,11.37
2019-05-19T22:29:43.320Z,11.20
2019-05-19T22:32:12.627Z,10.20
2019-05-19T22:34:41.890Z,10.30
2019-05-19T22:37:11.125Z,10.00
2019-05-19T22:39:40.383Z,11.07
2019-05-19T22:42:09.739Z,11.37
2019-05-19T22:44:39.003Z,11.33
2019-05-19T22:47:08.238Z,12.00
2019-05-19T22:49:37.482Z,14.63
2019-05-19T22:52:06.715Z,15.00
2019-05-19T22:54:36.073Z,12.80
2019-05-19T22:57:05.391Z,14.80
2019-05-19T22:59:34.633Z,20.07
2019-05-19T23:02:03.978Z,17.60
2019-05-19T23:04:33.227Z,15.60
2019-05-19T23:07:02.566Z,17.03
2019-05-19T23:09:31.925Z,14.23
2019-05-19T23:12:01.234Z,18.33
2019-05-19T23:14:31.021Z,20.73
2019-05-19T23:17:00.223Z,19.47
2019-05-19T23:19:29.464Z,16.23
2019-05-19T23:21:58.699Z,13.90
2019-05-19T23:24:28.021Z,14.80
2019-05-19T23:26:57.232Z,14.43
2019-05-19T23:29:26.483Z,17.73
2019-05-19T23:32:06.844Z,19.53
2019-05-19T23:34:26.696Z,16.57
2019-05-19T23:36:56.045Z,15.13
2019-05-19T23:39:25.198Z,13.30
2019-05-19T23:41:54.453Z,14.70
2019-05-19T23:44:23.771Z,13.20
2019-05-19T23:46:53.035Z,15.07
2019-05-19T23:49:22.265Z,18.23
2019-05-19T23:51:51.514Z,19.70
2019-05-19T23:54:20.836Z,20.53
2019-05-19T23:56:50.156Z,17.33
2019-05-19T23:59:19.399Z,17.57
